Mayfield, Idaho
Current Conditions -  °F | °C
As of 11:53 PM on Wednesday 26 Nov 2014 (Local Time) from KBOI Reporting Station
Clear Clear  
Wind Chill: 50°   Ceiling: Unl
Heat Index: 50°   Visibility: 10mi
Dew Point: 36°   Wind: 13mph
Humidity: 59%   Direction: 120°ESE
Pressure: 30.15"   Gusts: NA
Location:  43.5418°N, 116.118°W
Report Text: KBOI 270653Z 12011KT 10SM CLR 10/02 A3015 RMK AO2 SLP206 T01000022 401560028
Loading
Personal Weather Stations






























Interactive Weather Map New forecast layout! Learn more

10-Day Weather Forecast

Advertisements
Track Severe Weather on mobile